Thunder radar more information blitzortung!


Radar de pluja more information rain snow radar


Visita la nostra xarxa de llocs de meteo:

Template documentation
and downloads

And another site



No particular awareness of the weather is required.    There are no Weather-warnings

Pagina Historial Weather Underground text

Diari Resum Octubre 7, 2017 Unitats:  Imperial    Mètric   Tant
« Previous Dia
SegĂźent Dia »
Diari Setmana Mensual Anual Personalitzada
  Maxima: Minima: Media:
Temperatura: TemperatureC °F 14.7 °F 17.9 °F
Punt de rosada: DewpointC °F 8.2 °F 10.4 °F
Humitat: Humidity % 44 % 63 %
Wind Speed: WindSpeedKMH mph 0.0 mph 5.3 mph
RĂ fegues de vent: WindSpeedGustKMH mph - -
Vent:- - SSE
Pression baro: PressurehPa in 1018.8 in -
Precipitacions: 0.0 in    
Historical Graphs
 
 
Dades de taula per Octubre 7, 2017
Temps Temperatura Punt de rosada Pression baro Vent Wind Speed RĂ fegues de vent Humitat Rainfall Rate (Hourly)
TemperatureC °F DewpointC °F PressurehPa in Calm     Humidity % HourlyPrecipMM in
00:03 18.5 °F 15.4 °F 1019.9 in WNW 3.7 mph 3.7 mph 82 % 0.0 in
00:08 18.5 °F 15.4 °F 1019.9 in SW 1.9 mph   82 % 0.0 in
00:13 18.4 °F 15.3 °F 1019.9 in WNW 1.9 mph 1.9 mph 82 % 0.0 in
00:18 18.3 °F 15.2 °F 1019.9 in Calm     82 % 0.0 in
00:23 18.2 °F 15.1 °F 1019.9 in Calm     82 % 0.0 in
00:28 18.0 °F 14.9 °F 1019.9 in Calm     82 % 0.0 in
00:33 17.9 °F 14.8 °F 1019.9 in SW 3.7 mph 3.7 mph 82 % 0.0 in
00:39 17.7 °F 14.6 °F 1019.9 in WSW 3.9 mph 3.9 mph 82 % 0.0 in
00:44 17.5 °F 14.4 °F 1019.9 in WSW 3.7 mph 3.7 mph 82 % 0.0 in
00:49 17.6 °F 14.5 °F 1019.9 in WSW 3.7 mph 3.7 mph 82 % 0.0 in
00:54 17.7 °F 14.8 °F 1019.9 in ENE 3.2 mph   83 % 0.0 in
00:59 17.5 °F 14.8 °F 1019.9 in ENE 1.9 mph 2.3 mph 84 % 0.0 in
01:04 17.4 °F 14.7 °F 1019.9 in SSW 3.5 mph 3.5 mph 84 % 0.0 in
01:09 17.2 °F 14.3 °F 1019.9 in South 1.9 mph 1.9 mph 83 % 0.0 in
01:24 17.0 °F 14.1 °F 1019.9 in SW 5.6 mph 5.6 mph 83 % 0.0 in
01:29 16.9 °F 14.2 °F 1019.9 in WSW 3.7 mph 3.7 mph 84 % 0.0 in
01:34 16.9 °F 14.2 °F 1019.9 in SW 3.7 mph 3.7 mph 84 % 0.0 in
01:39 17.0 °F 14.3 °F 1019.9 in WSW 3.7 mph 3.7 mph 84 % 0.0 in
01:44 17.0 °F 14.3 °F 1019.9 in Calm     84 % 0.0 in
01:49 17.0 °F 14.3 °F 1019.9 in NNE 1.9 mph 1.9 mph 84 % 0.0 in
01:54 17.0 °F 14.4 °F 1019.9 in Calm     85 % 0.0 in
01:59 16.9 °F 14.3 °F 1019.9 in Calm     85 % 0.0 in
02:04 16.9 °F 14.3 °F 1019.9 in Calm     85 % 0.0 in
02:09 16.8 °F 14.3 °F 1019.9 in Calm     85 % 0.0 in
02:14 16.9 °F 14.3 °F 1018.8 in ENE 1.9 mph 1.9 mph 85 % 0.0 in
02:19 16.9 °F 14.3 °F 1018.8 in Calm     85 % 0.0 in
02:24 16.8 °F 14.4 °F 1018.8 in NE 1.9 mph 1.9 mph 86 % 0.0 in
02:29 16.8 °F 14.4 °F 1019.9 in Calm     86 % 0.0 in
02:34 16.8 °F 14.4 °F 1019.9 in Calm     86 % 0.0 in
02:39 16.7 °F 14.3 °F 1019.9 in WSW 1.9 mph   86 % 0.0 in
02:44 16.6 °F 14.1 °F 1019.9 in WSW 1.9 mph   85 % 0.0 in
02:46 16.7 °F 14.2 °F 1019.9 in Calm     85 % 0.0 in
02:51 16.7 °F 14.2 °F 1019.9 in Calm     85 % 0.0 in
02:56 16.5 °F 13.9 °F 1019.9 in SW 3.7 mph 3.7 mph 85 % 0.0 in
03:01 16.3 °F 13.6 °F 1019.9 in WSW 3.7 mph 3.9 mph 84 % 0.0 in
03:06 16.3 °F 13.6 °F 1019.9 in WSW 3.7 mph 3.7 mph 84 % 0.0 in
03:11 16.4 °F 13.7 °F 1019.9 in West 1.9 mph   84 % 0.0 in
03:16 16.4 °F 13.9 °F 1018.8 in Calm     85 % 0.0 in
03:21 16.3 °F 13.6 °F 1018.8 in SW 3.7 mph 3.7 mph 84 % 0.0 in
03:26 16.0 °F 13.3 °F 1018.8 in SW 5.6 mph 5.6 mph 84 % 0.0 in
03:31 15.9 °F 13.0 °F 1019.9 in SW 7.4 mph   83 % 0.0 in
03:36 15.9 °F 13.0 °F 1019.9 in WNW 1.9 mph 2.3 mph 83 % 0.0 in
03:41 15.9 °F 12.8 °F 1019.9 in West 5.3 mph 5.3 mph 82 % 0.0 in
03:46 16.2 °F 12.7 °F 1019.9 in WSW 5.6 mph 5.6 mph 80 % 0.0 in
03:51 16.2 °F 12.6 °F 1019.9 in SW 3.7 mph 3.7 mph 79 % 0.0 in
03:56 16.1 °F 12.3 °F 1019.9 in SW 1.9 mph 1.9 mph 78 % 0.0 in
04:01 16.1 °F 12.3 °F 1019.9 in WSW 3.2 mph 3.2 mph 78 % 0.0 in
04:06 16.2 °F 12.3 °F 1019.9 in WSW 3.9 mph 3.9 mph 78 % 0.0 in
04:11 16.1 °F 12.3 °F 1019.9 in WSW 3.7 mph 3.9 mph 78 % 0.0 in
04:16 16.0 °F 11.9 °F 1019.9 in SW 3.7 mph 3.7 mph 77 % 0.0 in
04:21 16.1 °F 11.9 °F 1019.9 in Calm     76 % 0.0 in
04:26 16.2 °F 11.9 °F 1019.9 in WSW 3.7 mph 3.7 mph 76 % 0.0 in
04:31 16.2 °F 11.8 °F 1019.9 in SSE 1.9 mph 1.9 mph 75 % 0.0 in
04:36 16.3 °F 11.7 °F 1019.9 in NNE 3.9 mph 3.9 mph 74 % 0.0 in
04:41 16.5 °F 11.8 °F 1019.9 in ENE 5.6 mph 5.6 mph 74 % 0.0 in
04:46 16.5 °F 11.8 °F 1019.9 in NNW 3.7 mph 3.7 mph 74 % 0.0 in
04:51 16.5 °F 11.8 °F 1019.9 in NNE 3.7 mph 3.7 mph 74 % 0.0 in
04:56 16.4 °F 11.8 °F 1019.9 in West 3.7 mph 3.7 mph 74 % 0.0 in
05:01 16.3 °F 11.4 °F 1020.9 in WNW 1.9 mph   73 % 0.0 in
05:06 16.2 °F 11.2 °F 1020.9 in NNE 3.7 mph 3.7 mph 72 % 0.0 in
05:12 16.1 °F 11.1 °F 1020.9 in NE 5.6 mph 5.6 mph 72 % 0.0 in
05:17 16.1 °F 10.8 °F 1020.9 in NNW 3.7 mph 3.7 mph 71 % 0.0 in
05:21 16.0 °F 10.7 °F 1020.9 in NE 1.9 mph 1.9 mph 71 % 0.0 in
05:26 16.0 °F 10.7 °F 1020.9 in NW 2.3 mph 2.3 mph 71 % 0.0 in
05:31 15.8 °F 10.6 °F 1020.9 in WNW 5.0 mph 5.0 mph 71 % 0.0 in
05:36 15.7 °F 10.2 °F 1020.9 in NNW 1.9 mph 1.9 mph 70 % 0.0 in
05:41 15.6 °F 10.2 °F 1020.9 in NW 3.7 mph 3.7 mph 70 % 0.0 in
05:42 15.6 °F 10.2 °F 1020.9 in West 2.3 mph 2.3 mph 70 % 0.0 in
05:52 15.3 °F 9.8 °F 1021.9 in NNE 3.7 mph 3.7 mph 70 % 0.0 in
05:57 15.3 °F 9.8 °F 1021.9 in North 1.9 mph 1.9 mph 70 % 0.0 in
06:02 15.2 °F 9.8 °F 1021.9 in NE 3.5 mph 3.5 mph 70 % 0.0 in
06:07 15.1 °F 9.7 °F 1021.9 in NNE 7.4 mph 7.4 mph 70 % 0.0 in
06:12 15.1 °F 9.4 °F 1021.9 in NNE 3.2 mph   69 % 0.0 in
06:17 15.1 °F 9.4 °F 1021.9 in NE 4.7 mph 4.7 mph 69 % 0.0 in
06:22 15.0 °F 9.3 °F 1021.9 in NE 5.6 mph 5.6 mph 69 % 0.0 in
06:27 15.0 °F 9.3 °F 1021.9 in NNE 6.1 mph 6.1 mph 69 % 0.0 in
06:32 15.0 °F 9.3 °F 1021.9 in NNE 3.7 mph 3.7 mph 69 % 0.0 in
06:37 15.0 °F 9.3 °F 1021.9 in ENE 5.6 mph 5.6 mph 69 % 0.0 in
06:42 15.0 °F 9.1 °F 1021.9 in NE 9.3 mph 9.3 mph 68 % 0.0 in
06:47 15.0 °F 9.1 °F 1021.9 in NNW 5.8 mph 5.8 mph 68 % 0.0 in
06:52 15.0 °F 9.1 °F 1021.9 in ENE 5.8 mph 5.8 mph 68 % 0.0 in
06:57 15.0 °F 9.1 °F 1021.9 in East 5.6 mph 5.6 mph 68 % 0.0 in
07:02 15.0 °F 9.1 °F 1022.9 in NE 3.7 mph 3.7 mph 68 % 0.0 in
07:12 14.9 °F 8.8 °F 1022.9 in NE 5.6 mph 5.6 mph 67 % 0.0 in
07:17 14.9 °F 8.8 °F 1022.9 in NNW 7.4 mph 7.4 mph 67 % 0.0 in
07:22 14.9 °F 8.8 °F 1022.9 in NE 5.6 mph 5.6 mph 67 % 0.0 in
07:32 14.8 °F 8.7 °F 1022.9 in WNW 3.7 mph 3.7 mph 67 % 0.0 in
07:37 14.8 °F 8.7 °F 1022.9 in WNW 3.7 mph 3.7 mph 67 % 0.0 in
07:42 14.7 °F 8.4 °F 1022.9 in North 1.9 mph   66 % 0.0 in
07:47 14.7 °F 8.6 °F 1022.9 in NNE 1.9 mph   67 % 0.0 in
07:52 14.8 °F 8.5 °F 1022.9 in ENE 3.7 mph 3.7 mph 66 % 0.0 in
07:57 14.8 °F 8.5 °F 1022.9 in NE 3.7 mph 3.7 mph 66 % 0.0 in
08:02 14.8 °F 8.5 °F 1022.9 in NNE 3.7 mph 3.7 mph 66 % 0.0 in
08:07 14.8 °F 8.5 °F 1022.9 in NW 1.9 mph 1.9 mph 66 % 0.0 in
08:12 14.8 °F 8.5 °F 1022.9 in NNE 4.2 mph 4.2 mph 66 % 0.0 in
08:17 15.0 °F 8.7 °F 1023.9 in NE 5.0 mph 5.0 mph 66 % 0.0 in
08:22 14.9 °F 8.6 °F 1023.9 in NNE 7.4 mph 7.4 mph 66 % 0.0 in
08:27 14.9 °F 8.6 °F 1023.9 in ENE 1.9 mph 1.9 mph 66 % 0.0 in
08:32 14.8 °F 8.5 °F 1023.9 in ENE 6.9 mph 6.9 mph 66 % 0.0 in
08:37 14.8 °F 8.5 °F 1023.9 in NNE 5.6 mph 5.6 mph 66 % 0.0 in
08:42 14.8 °F 8.5 °F 1023.9 in NE 7.4 mph 7.4 mph 66 % 0.0 in
08:47 14.8 °F 8.5 °F 1023.9 in ENE 9.3 mph 9.3 mph 66 % 0.0 in
08:52 15.0 °F 8.7 °F 1023.9 in NNW 9.3 mph 9.3 mph 66 % 0.0 in
08:57 15.0 °F 8.4 °F 1023.9 in ENE 7.4 mph 7.4 mph 65 % 0.0 in
09:02 15.1 °F 8.6 °F 1023.9 in NE 7.4 mph 7.4 mph 65 % 0.0 in
09:07 15.3 °F 8.8 °F 1023.9 in NE 3.9 mph 3.9 mph 65 % 0.0 in
09:08 15.3 °F 8.8 °F 1023.9 in East 3.9 mph 3.9 mph 65 % 0.0 in
09:13 15.3 °F 8.8 °F 1023.9 in NNE 5.6 mph 5.6 mph 65 % 0.0 in
09:18 15.3 °F 8.8 °F 1023.9 in NE 5.6 mph 5.6 mph 65 % 0.0 in
09:23 15.2 °F 8.7 °F 1023.9 in North 7.4 mph 7.4 mph 65 % 0.0 in
09:28 15.2 °F 8.4 °F 1023.9 in NNE 9.3 mph 9.3 mph 64 % 0.0 in
09:33 15.2 °F 8.4 °F 1023.9 in NNE 3.7 mph 4.7 mph 64 % 0.0 in
09:38 15.1 °F 8.3 °F 1023.9 in NNW 11.1 mph 11.1 mph 64 % 0.0 in
09:43 15.1 °F 8.3 °F 1023.9 in NNE 9.3 mph 9.3 mph 64 % 0.0 in
09:48 15.1 °F 8.3 °F 1023.9 in ENE 13.0 mph 13.0 mph 64 % 0.0 in
09:53 15.2 °F 8.4 °F 1023.9 in NE 9.5 mph 9.5 mph 64 % 0.0 in
09:58 15.2 °F 8.4 °F 1023.9 in NNE 9.3 mph 9.3 mph 64 % 0.0 in
10:03 15.2 °F 8.2 °F 1023.9 in ENE 4.7 mph 4.7 mph 63 % 0.0 in
10:08 15.4 °F 8.6 °F 1023.9 in NE 13.0 mph 13.0 mph 64 % 0.0 in
10:13 15.5 °F 8.5 °F 1023.9 in ESE 7.4 mph 7.4 mph 63 % 0.0 in
10:18 15.6 °F 8.6 °F 1023.9 in NNE 9.3 mph 9.3 mph 63 % 0.0 in
10:23 15.6 °F 8.6 °F 1023.9 in NNW 5.6 mph 5.6 mph 63 % 0.0 in
10:28 15.9 °F 8.8 °F 1023.9 in NNW 5.6 mph 5.6 mph 63 % 0.0 in
10:33 15.8 °F 8.6 °F 1024.9 in ENE 7.4 mph 7.4 mph 62 % 0.0 in
10:38 15.9 °F 8.6 °F 1024.9 in NNW 7.4 mph 7.4 mph 62 % 0.0 in
10:43 16.1 °F 8.8 °F 1024.9 in East 5.6 mph 5.6 mph 62 % 0.0 in
10:48 16.2 °F 8.7 °F 1024.9 in NNE 13.0 mph 13.0 mph 61 % 0.0 in
10:53 16.5 °F 8.9 °F 1024.9 in NE 5.6 mph 5.6 mph 61 % 0.0 in
10:58 16.5 °F 8.9 °F 1024.9 in NNE 9.3 mph 9.3 mph 61 % 0.0 in
11:03 16.7 °F 9.1 °F 1023.9 in North 7.4 mph 7.4 mph 61 % 0.0 in
11:08 16.7 °F 9.1 °F 1023.9 in NNE 5.6 mph 5.6 mph 61 % 0.0 in
11:13 16.6 °F 8.8 °F 1023.9 in NNE 5.6 mph 5.6 mph 60 % 0.0 in
11:23 16.8 °F 9.0 °F 1023.9 in NNE 7.4 mph 7.4 mph 60 % 0.0 in
11:28 17.0 °F 8.9 °F 1023.9 in NNE 9.3 mph 9.3 mph 59 % 0.0 in
11:38 17.0 °F 8.7 °F 1023.9 in NNE 5.8 mph 5.8 mph 58 % 0.0 in
11:43 17.1 °F 8.8 °F 1023.9 in NNE 7.4 mph 7.4 mph 58 % 0.0 in
11:48 17.2 °F 8.8 °F 1024.9 in NE 7.4 mph 7.4 mph 58 % 0.0 in
11:53 17.7 °F 9.3 °F 1024.9 in ENE 7.4 mph 7.4 mph 58 % 0.0 in
11:58 18.2 °F 9.6 °F 1024.9 in NE 7.4 mph 7.4 mph 57 % 0.0 in
12:03 18.5 °F 9.6 °F 1024.9 in ENE 3.7 mph 3.7 mph 56 % 0.0 in
12:08 18.5 °F 9.6 °F 1024.9 in East 3.7 mph 3.7 mph 56 % 0.0 in
12:13 18.6 °F 9.7 °F 1024.9 in NNE 7.4 mph 7.4 mph 56 % 0.0 in
12:18 18.6 °F 9.4 °F 1024.9 in ESE 11.1 mph 11.1 mph 55 % 0.0 in
12:23 19.1 °F 9.6 °F 1024.9 in South 13.0 mph 13.0 mph 54 % 0.0 in
12:28 19.4 °F 9.6 °F 1024.9 in NE 7.4 mph 7.4 mph 53 % 0.0 in
12:33 19.6 °F 10.1 °F 1024.9 in WSW 3.7 mph 3.7 mph 54 % 0.0 in
12:34 19.6 °F 10.1 °F 1024.9 in WSW 3.9 mph 3.9 mph 54 % 0.0 in
12:39 19.5 °F 9.9 °F 1024.9 in ENE 3.7 mph 3.7 mph 54 % 0.0 in
12:44 20.1 °F 10.2 °F 1023.9 in East 5.8 mph 5.8 mph 53 % 0.0 in
12:49 20.1 °F 10.2 °F 1023.9 in NNW 7.4 mph 7.4 mph 53 % 0.0 in
12:54 19.9 °F 9.7 °F 1023.9 in WSW 7.4 mph 7.4 mph 52 % 0.0 in
12:59 20.0 °F 9.8 °F 1023.9 in North 7.4 mph 7.4 mph 52 % 0.0 in
13:04 20.2 °F 10.0 °F 1023.9 in ENE 7.4 mph 7.4 mph 52 % 0.0 in
13:09 20.1 °F 9.9 °F 1023.9 in ESE 5.6 mph 5.6 mph 52 % 0.0 in
13:14 20.2 °F 10.0 °F 1023.9 in ESE 6.9 mph 6.9 mph 52 % 0.0 in
13:19 20.4 °F 10.2 °F 1023.9 in ESE 11.1 mph 11.1 mph 52 % 0.0 in
13:24 21.1 °F 10.6 °F 1023.9 in ESE 5.6 mph 5.6 mph 51 % 0.0 in
13:34 21.2 °F 10.3 °F 1023.9 in SE 9.3 mph 9.3 mph 50 % 0.0 in
13:39 21.6 °F 11.0 °F 1023.9 in WSW 4.2 mph 5.0 mph 51 % 0.0 in
13:44 21.3 °F 10.4 °F 1023.9 in ESE 14.8 mph 14.8 mph 50 % 0.0 in
13:49 21.4 °F 10.6 °F 1023.9 in South 11.1 mph 11.1 mph 50 % 0.0 in
13:54 21.4 °F 10.6 °F 1023.9 in NNE 7.4 mph 7.4 mph 50 % 0.0 in
13:59 21.1 °F 10.3 °F 1023.9 in East 7.4 mph 7.4 mph 50 % 0.0 in
14:04 21.5 °F 10.6 °F 1023.9 in East 5.6 mph 5.6 mph 50 % 0.0 in
14:09 21.9 °F 11.0 °F 1023.9 in SSW 6.4 mph 6.4 mph 50 % 0.0 in
14:14 22.3 °F 11.4 °F 1023.9 in South 9.3 mph 9.3 mph 50 % 0.0 in
14:19 22.9 °F 11.6 °F 1023.9 in SSE 4.7 mph 4.7 mph 49 % 0.0 in
14:24 22.2 °F 11.0 °F 1023.9 in NE 5.6 mph 5.6 mph 49 % 0.0 in
14:29 22.7 °F 11.4 °F 1023.9 in East 7.9 mph 7.9 mph 49 % 0.0 in
14:34 22.5 °F 11.2 °F 1023.9 in South 5.6 mph 5.6 mph 49 % 0.0 in
14:39 22.9 °F 11.3 °F 1023.9 in ENE 14.8 mph 14.8 mph 48 % 0.0 in
14:44 22.5 °F 10.9 °F 1022.9 in SE 7.4 mph 7.4 mph 48 % 0.0 in
14:49 23.2 °F 11.6 °F 1022.9 in South 14.8 mph 14.8 mph 48 % 0.0 in
14:54 23.0 °F 11.1 °F 1022.9 in SW 5.6 mph 5.6 mph 47 % 0.0 in
14:59 23.4 °F 11.8 °F 1022.9 in WSW 7.4 mph 7.4 mph 48 % 0.0 in
15:04 23.3 °F 11.7 °F 1022.9 in NW 11.1 mph 11.1 mph 48 % 0.0 in
15:09 23.0 °F 11.4 °F 1022.9 in WSW 5.6 mph 5.6 mph 48 % 0.0 in
15:14 23.5 °F 11.8 °F 1022.9 in SW 11.1 mph 11.1 mph 48 % 0.0 in
15:19 23.7 °F 12.1 °F 1022.9 in South 5.0 mph 5.0 mph 48 % 0.0 in
15:24 23.5 °F 11.8 °F 1022.9 in SW 11.1 mph 11.1 mph 48 % 0.0 in
15:29 23.5 °F 11.8 °F 1022.9 in SW 11.9 mph 11.9 mph 48 % 0.0 in
15:34 23.4 °F 11.4 °F 1022.9 in West 7.4 mph 7.4 mph 47 % 0.0 in
15:39 23.5 °F 11.6 °F 1022.9 in South 3.7 mph 3.9 mph 47 % 0.0 in
15:44 23.7 °F 11.7 °F 1022.9 in SW 9.0 mph 9.0 mph 47 % 0.0 in
15:49 24.3 °F 12.3 °F 1022.9 in SSW 9.3 mph 9.3 mph 47 % 0.0 in
15:54 24.4 °F 12.3 °F 1022.9 in SW 5.8 mph 5.8 mph 47 % 0.0 in
15:59 24.6 °F 12.6 °F 1021.9 in WSW 7.4 mph 7.4 mph 47 % 0.0 in
16:04 24.1 °F 11.8 °F 1021.9 in SW 5.6 mph 5.6 mph 46 % 0.0 in
16:09 23.2 °F 10.9 °F 1021.9 in East 5.6 mph 5.6 mph 46 % 0.0 in
16:14 23.2 °F 10.9 °F 1022.9 in ENE 7.4 mph 7.4 mph 46 % 0.0 in
16:19 23.6 °F 11.6 °F 1022.9 in WSW 7.4 mph 7.4 mph 47 % 0.0 in
16:20 23.6 °F 11.6 °F 1022.9 in SSW 7.4 mph 7.4 mph 47 % 0.0 in
16:25 22.9 °F 10.7 °F 1022.9 in SE 13.0 mph 13.0 mph 46 % 0.0 in
16:30 22.8 °F 10.6 °F 1021.9 in NE 13.7 mph 13.7 mph 46 % 0.0 in
16:35 22.9 °F 10.3 °F 1021.9 in South 11.1 mph 11.1 mph 45 % 0.0 in
16:40 23.0 °F 10.1 °F 1021.9 in SSE 9.3 mph 9.3 mph 44 % 0.0 in
16:45 23.2 °F 10.6 °F 1021.9 in South 9.5 mph 9.5 mph 45 % 0.0 in
16:50 23.1 °F 10.2 °F 1021.9 in ENE 16.7 mph 16.7 mph 44 % 0.0 in
16:55 23.7 °F 11.4 °F 1021.9 in WSW 9.3 mph 9.3 mph 46 % 0.0 in
17:00 24.0 °F 11.7 °F 1022.9 in WSW 8.7 mph 8.7 mph 46 % 0.0 in
17:05 23.9 °F 11.6 °F 1022.9 in South 11.1 mph 11.1 mph 46 % 0.0 in
17:10 23.5 °F 11.2 °F 1022.9 in SW 16.7 mph 16.7 mph 46 % 0.0 in
17:15 23.3 °F 11.0 °F 1022.9 in SW 16.7 mph 16.7 mph 46 % 0.0 in
17:20 23.2 °F 10.9 °F 1022.9 in SSE 5.6 mph 5.6 mph 46 % 0.0 in
17:25 23.3 °F 11.0 °F 1022.9 in SW 13.0 mph 13.0 mph 46 % 0.0 in
17:30 23.4 °F 11.1 °F 1022.9 in SW 5.8 mph 5.8 mph 46 % 0.0 in
17:35 23.2 °F 10.9 °F 1022.9 in SW 11.1 mph 11.1 mph 46 % 0.0 in
17:40 22.8 °F 10.6 °F 1022.9 in South 13.0 mph 13.0 mph 46 % 0.0 in
17:45 22.8 °F 10.9 °F 1021.9 in SW 5.6 mph 5.6 mph 47 % 0.0 in
17:50 22.3 °F 10.4 °F 1021.9 in SW 7.4 mph 7.4 mph 47 % 0.0 in
17:55 21.9 °F 10.1 °F 1021.9 in WSW 7.4 mph 7.4 mph 47 % 0.0 in
18:00 21.5 °F 9.7 °F 1022.9 in South 14.8 mph 14.8 mph 47 % 0.0 in
18:05 21.1 °F 9.3 °F 1022.9 in SW 9.3 mph 9.3 mph 47 % 0.0 in
18:10 21.0 °F 9.3 °F 1022.9 in South 9.3 mph 9.3 mph 47 % 0.0 in
18:15 21.0 °F 9.6 °F 1022.9 in SSW 4.2 mph 4.2 mph 48 % 0.0 in
18:20 20.8 °F 9.7 °F 1022.9 in SW 9.0 mph 9.0 mph 49 % 0.0 in
18:25 20.8 °F 9.7 °F 1022.9 in West 7.4 mph 7.4 mph 49 % 0.0 in
18:30 20.9 °F 9.8 °F 1022.9 in SSW 9.3 mph 9.3 mph 49 % 0.0 in
18:31 20.9 °F 9.8 °F 1022.9 in WSW 11.1 mph 11.1 mph 49 % 0.0 in
18:36 20.6 °F 9.5 °F 1022.9 in SSW 7.4 mph 7.4 mph 49 % 0.0 in
18:41 20.4 °F 9.6 °F 1022.9 in SW 13.0 mph 13.0 mph 50 % 0.0 in
18:46 20.4 °F 9.6 °F 1022.9 in WSW 13.0 mph 13.0 mph 50 % 0.0 in
18:51 20.2 °F 9.4 °F 1022.9 in SW 5.6 mph 5.6 mph 50 % 0.0 in
18:56 20.1 °F 9.3 °F 1022.9 in South 13.0 mph 13.0 mph 50 % 0.0 in
19:01 20.0 °F 9.6 °F 1022.9 in SW 5.6 mph 5.6 mph 51 % 0.0 in
19:06 19.8 °F 9.4 °F 1022.9 in SSW 9.0 mph 9.0 mph 51 % 0.0 in
19:11 19.6 °F 9.2 °F 1022.9 in SW 6.9 mph 6.9 mph 51 % 0.0 in
19:16 19.4 °F 9.0 °F 1022.9 in SW 5.6 mph 5.6 mph 51 % 0.0 in
19:21 19.3 °F 9.2 °F 1022.9 in SW 6.4 mph 6.4 mph 52 % 0.0 in
19:22 19.3 °F 9.2 °F 1022.9 in WSW 7.4 mph 7.4 mph 52 % 0.0 in
19:27 19.0 °F 8.9 °F 1022.9 in SW 7.4 mph 7.4 mph 52 % 0.0 in
19:32 18.8 °F 9.0 °F 1022.9 in SW 9.0 mph 9.0 mph 53 % 0.0 in
19:37 18.6 °F 8.8 °F 1022.9 in SW 5.6 mph 5.6 mph 53 % 0.0 in
19:42 18.5 °F 9.0 °F 1022.9 in SW 7.4 mph 7.4 mph 54 % 0.0 in
19:47 18.4 °F 8.9 °F 1022.9 in SW 3.7 mph 3.7 mph 54 % 0.0 in
19:52 18.3 °F 8.8 °F 1022.9 in SW 3.9 mph 3.9 mph 54 % 0.0 in
19:57 18.1 °F 8.9 °F 1022.9 in SW 3.7 mph 3.7 mph 55 % 0.0 in
20:02 17.9 °F 8.7 °F 1022.9 in SW 3.9 mph 3.9 mph 55 % 0.0 in
20:07 17.8 °F 8.6 °F 1022.9 in WSW 7.4 mph 7.4 mph 55 % 0.0 in
20:12 17.7 °F 8.8 °F 1022.9 in West 4.2 mph 4.2 mph 56 % 0.0 in
20:17 17.7 °F 8.8 °F 1023.9 in SSW 3.9 mph 3.9 mph 56 % 0.0 in
20:22 17.6 °F 8.7 °F 1023.9 in WSW 3.7 mph 3.7 mph 56 % 0.0 in
20:27 17.5 °F 8.9 °F 1023.9 in WSW 7.4 mph 7.4 mph 57 % 0.0 in
20:32 17.5 °F 8.9 °F 1022.9 in WSW 3.7 mph 3.7 mph 57 % 0.0 in
20:37 17.4 °F 9.1 °F 1022.9 in Calm     58 % 0.0 in
20:42 17.3 °F 8.9 °F 1022.9 in SW 3.7 mph 3.7 mph 58 % 0.0 in
20:47 17.2 °F 8.8 °F 1023.9 in WSW 3.7 mph 3.7 mph 58 % 0.0 in
20:52 17.2 °F 8.8 °F 1023.9 in SW 3.7 mph 3.7 mph 58 % 0.0 in
20:57 17.1 °F 9.0 °F 1023.9 in SW 3.7 mph 3.7 mph 59 % 0.0 in
21:02 17.1 °F 9.0 °F 1023.9 in SW 3.2 mph 3.2 mph 59 % 0.0 in
21:07 17.0 °F 8.9 °F 1023.9 in SW 2.6 mph 2.6 mph 59 % 0.0 in
21:12 17.0 °F 8.9 °F 1023.9 in SW 3.7 mph 3.7 mph 59 % 0.0 in
21:17 16.9 °F 9.3 °F 1022.9 in Calm     61 % 0.0 in
21:22 16.8 °F 9.2 °F 1022.9 in WSW 1.9 mph 1.9 mph 61 % 0.0 in
21:27 16.8 °F 9.2 °F 1022.9 in Calm     61 % 0.0 in
21:32 16.7 °F 9.1 °F 1023.9 in Calm     61 % 0.0 in
21:37 16.6 °F 9.3 °F 1023.9 in Calm     62 % 0.0 in
21:42 16.5 °F 9.2 °F 1023.9 in Calm     62 % 0.0 in
21:47 16.4 °F 9.1 °F 1022.9 in Calm     62 % 0.0 in
21:52 16.4 °F 9.1 °F 1022.9 in Calm     62 % 0.0 in
21:57 16.3 °F 9.2 °F 1022.9 in Calm     63 % 0.0 in
22:02 16.3 °F 9.2 °F 1022.9 in Calm     63 % 0.0 in
22:07 16.3 °F 9.2 °F 1022.9 in West 3.7 mph 3.7 mph 63 % 0.0 in
22:12 16.4 °F 9.3 °F 1022.9 in West 2.3 mph 2.3 mph 63 % 0.0 in
22:17 16.3 °F 9.5 °F 1022.9 in Calm     64 % 0.0 in
22:27 16.2 °F 9.4 °F 1022.9 in Calm     64 % 0.0 in
22:32 16.1 °F 9.3 °F 1023.9 in West 1.9 mph   64 % 0.0 in
22:37 16.0 °F 9.2 °F 1023.9 in Calm     64 % 0.0 in
22:42 15.8 °F 9.0 °F 1023.9 in West 2.3 mph   64 % 0.0 in
22:47 15.7 °F 9.1 °F 1022.9 in Calm     65 % 0.0 in
22:52 15.6 °F 9.1 °F 1022.9 in Calm     65 % 0.0 in
22:57 15.5 °F 8.9 °F 1022.9 in Calm     65 % 0.0 in
23:02 15.4 °F 9.1 °F 1022.9 in Calm     66 % 0.0 in
23:07 15.3 °F 9.0 °F 1022.9 in Calm     66 % 0.0 in
23:12 15.3 °F 9.0 °F 1022.9 in Calm     66 % 0.0 in
23:17 15.2 °F 8.9 °F 1022.9 in Calm     66 % 0.0 in
23:22 15.1 °F 9.0 °F 1022.9 in Calm     67 % 0.0 in
23:27 15.0 °F 8.9 °F 1022.9 in Calm     67 % 0.0 in
23:32 15.0 °F 9.1 °F 1022.9 in Calm     68 % 0.0 in
23:37 15.0 °F 9.1 °F 1022.9 in Calm     68 % 0.0 in
23:42 14.9 °F 9.1 °F 1022.9 in Calm     68 % 0.0 in
23:47 14.9 °F 9.1 °F 1022.9 in West 1.4 mph   68 % 0.0 in
23:52 14.9 °F 9.1 °F 1022.9 in Calm     68 % 0.0 in
23:57 14.8 °F 9.2 °F 1022.9 in Calm     69 % 0.0 in
Meteo Sesrovires
Elogis d' Weather Underground - 2 mb

Guio original per  Jim McMurry - jmcmurry@mwt.net Adaptat per a la plantilla per  Wim van der Kuil - Leuven-Template.eu

Trobareu la nostra informacio del temps tambe a:

Weather Underground

AWEKAS